Time;durP1;ratioP1;P1;durP2;ratioP2;P2;SDS_P1;SDS_P2;PMS_P1;PMS_P2;Temp;Humidity;BMP_temperature;BMP_pressure;BME280_temperature;BME280_humidity;BME280_pressure;Samples;Min_cycle;Max_cycle;Signal;HPM_P1;HPM_P2
2022/06/17 07:10:33;;;;;;;;;;;;;;;25.71;100.00;98721.47;5126141;23;19970;-68
2022/06/17 07:13:01;;;;;;;;;;;;;;;25.85;100.00;98725.63;4840990;29;19953;-68
2022/06/17 07:15:29;;;;;;;;;;;;;;;25.64;100.00;98721.03;4840428;29;20305;-68
2022/06/17 07:18:03;;;;;;;;;;;;;;;26.20;100.00;98717.22;4854517;29;19948;-68
2022/06/17 07:20:36;;;;;;;;;;;;;;;26.58;100.00;98714.25;4860675;29;20357;-66
2022/06/17 07:23:04;;;;;;;;;;;;;;;26.81;100.00;98715.41;4858593;29;19957;-67
2022/06/17 07:25:33;;;;;;;;;;;;;;;27.04;100.00;98712.41;4858620;29;19948;-67
2022/06/17 07:28:01;;;;;;;;;;;;;;;27.14;100.00;98713.81;4855655;29;19959;-66
2022/06/17 07:30:29;;;;;;;;;;;;;;;27.17;100.00;98718.56;4855062;29;19960;-67
2022/06/17 07:32:56;;;;;;;;;;;;;;;27.62;100.00;98724.94;4857148;29;19952;-67
2022/06/17 07:35:24;;;;;;;;;;;;;;;27.74;100.00;98733.22;4856324;29;19959;-67
2022/06/17 07:40:47;;;;;;;;;;;;;;;27.53;100.00;98734.50;4851034;29;19962;-66
2022/06/17 07:43:18;;;;;;;;;;;;;;;27.20;100.00;98729.06;4852874;29;19981;-67
2022/06/17 07:45:45;;;;;;;;;;;;;;;27.19;100.00;98723.84;4858327;29;19951;-67
2022/06/17 07:48:14;;;;;;;;;;;;;;;27.28;100.00;98718.75;4857179;29;19962;-67
2022/06/17 07:50:43;;;;;;;;;;;;;;;27.22;100.00;98728.56;4856815;29;19947;-67
2022/06/17 07:53:11;;;;;;;;;;;;;;;26.95;100.00;98723.97;4857771;29;19957;-67
2022/06/17 07:55:40;;;;;;;;;;;;;;;26.84;100.00;98723.03;4858938;29;20252;-65
2022/06/17 07:58:09;;;;;;;;;;;;;;;26.88;100.00;98735.06;4859268;29;19956;-66
2022/06/17 08:00:38;;;;;;;;;;;;;;;26.74;100.00;98733.81;4854879;29;20247;-65
2022/06/17 08:03:08;;;;;;;;;;;;;;;26.82;100.00;98731.34;4858011;29;19983;-66
2022/06/17 08:05:37;;;;;;;;;;;;;;;27.08;100.00;98730.19;4858314;29;19981;-65
2022/06/17 08:08:07;;;;;;;;;;;;;;;27.29;100.00;98737.53;4858087;29;20401;-65
2022/06/17 08:10:35;;;;;;;;;;;;;;;27.46;100.00;98725.53;4854004;29;20320;-66
2022/06/17 08:13:04;;;;;;;;;;;;;;;27.73;100.00;98725.88;4849696;29;20321;-66
2022/06/17 08:15:32;;;;;;;;;;;;;;;28.00;100.00;98725.44;4857270;29;19949;-66
2022/06/17 08:18:02;;;;;;;;;;;;;;;28.10;100.00;98722.41;4855577;29;20292;-66
2022/06/17 08:20:32;;;;;;;;;;;;;;;28.32;100.00;98729.16;4857347;29;19947;-66
2022/06/17 08:23:02;;;;;;;;;;;;;;;28.33;100.00;98730.75;4854797;29;20308;-66
2022/06/17 08:25:29;;;;;;;;;;;;;;;28.28;100.00;98724.94;4853371;29;19953;-66
2022/06/17 08:27:58;;;;;;;;;;;;;;;28.43;100.00;98732.16;4856328;29;19979;-65
2022/06/17 08:30:27;;;;;;;;;;;;;;;28.34;100.00;98731.56;4859782;29;19956;-68
2022/06/17 08:32:55;;;;;;;;;;;;;;;28.63;100.00;98731.34;4854548;29;19952;-69
2022/06/17 08:35:28;;;;;;;;;;;;;;;28.69;100.00;98728.47;4855272;29;20352;-66
2022/06/17 08:38:02;;;;;;;;;;;;;;;28.64;100.00;98735.78;4859221;29;19960;-69
2022/06/17 08:40:32;;;;;;;;;;;;;;;28.74;100.00;98742.91;4854280;29;19954;-70
2022/06/17 08:43:06;;;;;;;;;;;;;;;28.95;100.00;98747.31;4859022;29;19959;-69
2022/06/17 08:45:51;;;;;;;;;;;;;;;29.06;100.00;98738.72;4853337;29;19952;-69
2022/06/17 08:48:34;;;;;;;;;;;;;;;28.92;100.00;98745.44;4850677;29;20371;-73
2022/06/17 08:51:12;;;;;;;;;;;;;;;29.05;100.00;98736.38;4861940;29;19950;-67
2022/06/17 08:53:42;;;;;;;;;;;;;;;29.09;100.00;98749.22;4856459;29;19964;-68
2022/06/17 08:56:15;;;;;;;;;;;;;;;29.13;100.00;98752.66;4851412;29;19960;-68
2022/06/17 08:58:42;;;;;;;;;;;;;;;29.06;100.00;98750.25;4851452;29;19963;-69
2022/06/17 09:01:16;;;;;;;;;;;;;;;28.75;100.00;98750.28;4856923;29;19948;-69
2022/06/17 09:04:11;;;;;;;;;;;;;;;28.71;100.00;98754.69;4855919;29;20340;-68
2022/06/17 09:06:39;;;;;;;;;;;;;;;28.68;100.00;98755.69;4852592;29;19965;-73
2022/06/17 09:09:14;;;;;;;;;;;;;;;28.81;100.00;98756.06;4850101;29;20365;-73
2022/06/17 09:12:01;;;;;;;;;;;;;;;28.66;100.00;98764.06;4851874;29;19983;-69
2022/06/17 09:14:42;;;;;;;;;;;;;;;28.78;100.00;98762.84;4849306;29;20369;-73
2022/06/17 09:17:21;;;;;;;;;;;;;;;28.93;100.00;98761.38;4855597;29;19952;-70
2022/06/17 09:19:50;;;;;;;;;;;;;;;28.92;100.00;98768.47;4852635;29;19964;-71
2022/06/17 09:22:23;;;;;;;;;;;;;;;28.96;100.00;98765.34;4846897;29;19958;-70
2022/06/17 09:24:52;;;;;;;;;;;;;;;29.07;100.00;98769.13;4846733;29;20037;-72
2022/06/17 09:27:45;;;;;;;;;;;;;;;29.21;100.00;98767.41;4853704;29;19977;-74
2022/06/17 09:30:22;;;;;;;;;;;;;;;29.27;100.00;98763.25;4848080;29;19961;-72
2022/06/17 09:32:54;;;;;;;;;;;;;;;29.11;100.00;98763.91;4848354;29;20384;-70
2022/06/17 09:35:24;;;;;;;;;;;;;;;29.27;100.00;98760.34;4855239;29;19962;-73
2022/06/17 09:38:21;;;;;;;;;;;;;;;29.23;100.00;98771.34;4857911;29;19958;-74
2022/06/17 09:40:53;;;;;;;;;;;;;;;29.31;100.00;98763.00;4839843;29;19951;-74
2022/06/17 09:43:31;;;;;;;;;;;;;;;29.38;100.00;98762.53;4862213;29;19956;-78
2022/06/17 09:46:09;;;;;;;;;;;;;;;29.40;100.00;98759.13;4856798;29;19959;-74
2022/06/17 09:49:01;;;;;;;;;;;;;;;29.39;100.00;98761.25;4841065;29;19972;-76
2022/06/17 09:51:49;;;;;;;;;;;;;;;29.54;100.00;98764.72;4855046;29;19959;-73
2022/06/17 09:54:24;;;;;;;;;;;;;;;29.63;100.00;98755.06;4850923;29;19959;-75
2022/06/17 09:57:26;;;;;;;;;;;;;;;29.42;100.00;98760.19;4857802;29;19960;-73
2022/06/17 10:00:05;;;;;;;;;;;;;;;29.35;100.00;98757.00;4852603;29;19950;-74
2022/06/17 10:02:37;;;;;;;;;;;;;;;29.44;100.00;98757.59;4854533;29;19957;-77
2022/06/17 10:05:16;;;;;;;;;;;;;;;29.55;100.00;98756.84;4857235;29;19977;-78
2022/06/17 10:07:50;;;;;;;;;;;;;;;29.56;100.00;98756.34;4851343;29;19968;-76
2022/06/17 10:10:37;;;;;;;;;;;;;;;29.54;100.00;98758.19;4850905;29;19994;-73
2022/06/17 10:13:16;;;;;;;;;;;;;;;29.78;100.00;98756.50;4852479;29;19962;-72
2022/06/17 10:19:18;;;;;;;;;;;;;;;29.82;100.00;98748.38;4814684;29;19960;-73
2022/06/17 10:22:01;;;;;;;;;;;;;;;29.86;100.00;98739.47;4856893;29;19954;-71
2022/06/17 10:24:38;;;;;;;;;;;;;;;29.84;100.00;98737.13;4855656;29;19949;-71
2022/06/17 10:27:13;;;;;;;;;;;;;;;29.86;100.00;98736.59;4851840;29;19958;-69
2022/06/17 10:30:01;;;;;;;;;;;;;;;29.79;100.00;98737.88;4851264;29;19949;-72
2022/06/17 10:32:29;;;;;;;;;;;;;;;29.82;100.00;98736.84;4852656;29;19948;-70
2022/06/17 10:35:01;;;;;;;;;;;;;;;29.84;100.00;98734.22;4853422;29;20334;-70
2022/06/17 10:37:29;;;;;;;;;;;;;;;29.86;100.00;98743.16;4857414;29;19957;-72
2022/06/17 10:40:21;;;;;;;;;;;;;;;29.85;100.00;98735.03;4854024;29;19950;-71
2022/06/17 10:42:50;;;;;;;;;;;;;;;29.88;100.00;98736.88;4855861;29;19956;-72
2022/06/17 10:45:34;;;;;;;;;;;;;;;29.71;100.00;98741.75;4856640;29;19970;-71
2022/06/17 10:48:07;;;;;;;;;;;;;;;29.82;100.00;98736.06;4855718;29;19969;-71
2022/06/17 10:50:34;;;;;;;;;;;;;;;29.81;100.00;98738.13;4857582;29;19954;-68
2022/06/17 10:53:19;;;;;;;;;;;;;;;29.80;100.00;98738.66;4857573;29;19960;-66
2022/06/17 10:55:48;;;;;;;;;;;;;;;29.91;100.00;98730.84;4842422;29;19961;-71
2022/06/17 10:58:19;;;;;;;;;;;;;;;29.80;100.00;98735.78;4854196;29;20314;-73
2022/06/17 11:00:52;;;;;;;;;;;;;;;29.92;100.00;98734.53;4858668;29;19964;-73
2022/06/17 11:03:24;;;;;;;;;;;;;;;29.94;100.00;98731.91;4858374;29;20221;-71
2022/06/17 11:06:14;;;;;;;;;;;;;;;30.04;100.00;98724.59;4855750;29;20356;-72
2022/06/17 11:08:48;;;;;;;;;;;;;;;30.03;100.00;98739.53;4824358;29;19976;-73
2022/06/17 11:14:17;;;;;;;;;;;;;;;30.22;100.00;98726.22;4840573;29;19953;-71
2022/06/17 11:16:47;;;;;;;;;;;;;;;30.15;100.00;98735.38;4841902;29;20263;-71
2022/06/17 11:19:17;;;;;;;;;;;;;;;30.34;100.00;98725.75;4840798;29;19953;-73
2022/06/17 11:21:46;;;;;;;;;;;;;;;30.40;100.00;98728.63;4840525;29;19952;-70
2022/06/17 11:24:24;;;;;;;;;;;;;;;30.23;100.00;98727.78;4836562;29;20244;-73
2022/06/17 11:27:06;;;;;;;;;;;;;;;30.12;100.00;98719.91;4838221;29;20193;-74
2022/06/17 11:29:36;;;;;;;;;;;;;;;30.16;100.00;98726.19;4837289;29;19971;-69
2022/06/17 11:32:24;;;;;;;;;;;;;;;29.95;100.00;98716.19;4841228;29;19950;-71
2022/06/17 11:34:57;;;;;;;;;;;;;;;29.93;100.00;98718.81;4842759;29;19958;-70
2022/06/17 11:37:34;;;;;;;;;;;;;;;29.92;100.00;98706.47;4842143;29;19960;-67
2022/06/17 11:40:12;;;;;;;;;;;;;;;29.84;100.00;98722.69;4837268;29;19951;-68
2022/06/17 11:42:44;;;;;;;;;;;;;;;29.90;100.00;98716.97;4838653;29;20341;-70
2022/06/17 11:45:16;;;;;;;;;;;;;;;30.05;100.00;98717.53;4834289;29;19955;-71
2022/06/17 11:47:47;;;;;;;;;;;;;;;29.86;100.00;98704.88;4837521;29;19949;-70
2022/06/17 11:50:23;;;;;;;;;;;;;;;29.80;100.00;98710.63;4822781;29;19956;-71
2022/06/17 11:52:59;;;;;;;;;;;;;;;29.85;100.00;98714.84;4836534;29;19983;-73
2022/06/17 11:55:28;;;;;;;;;;;;;;;29.80;100.00;98713.50;4833237;29;20192;-69
2022/06/17 11:58:19;;;;;;;;;;;;;;;29.77;100.00;98710.88;4840748;29;19964;-69
2022/06/17 12:00:49;;;;;;;;;;;;;;;29.90;100.00;98709.09;4838602;29;19958;-73
2022/06/17 12:03:19;;;;;;;;;;;;;;;29.96;100.00;98709.09;4844891;29;19972;-76
2022/06/17 12:05:55;;;;;;;;;;;;;;;29.91;100.00;98709.88;4838473;29;19956;-74
2022/06/17 12:08:28;;;;;;;;;;;;;;;30.00;100.00;98705.97;4835228;29;19977;-81
2022/06/17 12:11:03;;;;;;;;;;;;;;;30.01;100.00;98704.66;4852799;29;19982;-69
2022/06/17 12:13:40;;;;;;;;;;;;;;;30.06;100.00;98696.00;4855133;29;20348;-67
2022/06/17 12:16:16;;;;;;;;;;;;;;;29.91;100.00;98693.34;4851454;29;19973;-67
2022/06/17 12:18:48;;;;;;;;;;;;;;;29.98;100.00;98689.16;4852008;29;19954;-68
2022/06/17 12:21:19;;;;;;;;;;;;;;;30.04;100.00;98689.97;4854190;29;19953;-75
2022/06/17 12:23:55;;;;;;;;;;;;;;;29.91;100.00;98690.47;4852066;29;19963;-72
2022/06/17 12:26:28;;;;;;;;;;;;;;;29.94;100.00;98688.63;4852440;29;19958;-75
2022/06/17 12:29:22;;;;;;;;;;;;;;;29.83;100.00;98680.75;4854523;29;20026;-68
2022/06/17 12:31:54;;;;;;;;;;;;;;;29.84;100.00;98679.44;4847758;29;19954;-68
2022/06/17 12:34:31;;;;;;;;;;;;;;;29.92;100.00;98680.53;4857326;29;19984;-68
2022/06/17 12:37:24;;;;;;;;;;;;;;;29.96;100.00;98679.50;4853413;29;19956;-73
2022/06/17 12:39:57;;;;;;;;;;;;;;;29.97;100.00;98681.84;4853305;29;19958;-70
2022/06/17 12:42:29;;;;;;;;;;;;;;;29.91;100.00;98673.16;4853726;29;19952;-69
2022/06/17 12:45:02;;;;;;;;;;;;;;;29.80;100.00;98673.16;4857221;29;20245;-69
2022/06/17 12:47:29;;;;;;;;;;;;;;;30.01;100.00;98675.81;4858591;29;19949;-70
2022/06/17 12:53:15;;;;;;;;;;;;;;;29.86;100.00;98670.25;4859907;29;19953;-69
2022/06/17 12:56:04;;;;;;;;;;;;;;;30.04;100.00;98669.78;4853792;29;19947;-68
2022/06/17 12:58:37;;;;;;;;;;;;;;;30.12;100.00;98670.06;4854504;29;19955;-69
2022/06/17 13:01:20;;;;;;;;;;;;;;;30.10;100.00;98664.84;4856113;29;19953;-71
2022/06/17 13:03:50;;;;;;;;;;;;;;;30.15;100.00;98661.13;4855343;29;20372;-66
2022/06/17 13:06:20;;;;;;;;;;;;;;;30.03;100.00;98662.44;4855300;29;19974;-68
2022/06/17 13:08:50;;;;;;;;;;;;;;;30.18;100.00;98657.22;4858292;29;19969;-72
2022/06/17 13:11:17;;;;;;;;;;;;;;;30.13;100.00;98663.75;4857339;29;19951;-70
2022/06/17 13:13:53;;;;;;;;;;;;;;;30.48;100.00;98654.66;4856170;29;20489;-70
2022/06/17 13:16:34;;;;;;;;;;;;;;;30.16;100.00;98659.84;4860231;29;19959;-70
2022/06/17 13:19:06;;;;;;;;;;;;;;;30.18;100.00;98657.22;4859508;29;19955;-76
2022/06/17 13:21:33;;;;;;;;;;;;;;;30.24;100.00;98649.38;4861756;29;20335;-70
2022/06/17 13:24:01;;;;;;;;;;;;;;;30.26;100.00;98658.28;4839513;29;19947;-72
2022/06/17 13:26:40;;;;;;;;;;;;;;;30.21;100.00;98656.19;4856033;29;19957;-73
2022/06/17 13:29:31;;;;;;;;;;;;;;;30.17;100.00;98655.66;4842243;29;19971;-74
2022/06/17 13:32:14;;;;;;;;;;;;;;;30.16;100.00;98651.19;4856769;29;19953;-73
2022/06/17 13:34:47;;;;;;;;;;;;;;;30.25;100.00;98650.94;4858997;29;19948;-68
2022/06/17 13:37:19;;;;;;;;;;;;;;;30.31;100.00;98645.16;4856651;29;19949;-70
2022/06/17 13:39:52;;;;;;;;;;;;;;;30.14;100.00;98653.81;4861262;29;19949;-69
2022/06/17 13:42:20;;;;;;;;;;;;;;;30.17;100.00;98649.09;4846542;29;20692;-71
2022/06/17 13:44:50;;;;;;;;;;;;;;;30.17;100.00;98649.09;4858132;29;19948;-73
2022/06/17 13:47:36;;;;;;;;;;;;;;;30.11;100.00;98646.19;4858588;29;19950;-73
2022/06/17 13:50:03;;;;;;;;;;;;;;;30.06;100.00;98646.19;4861639;29;19971;-73
2022/06/17 13:52:31;;;;;;;;;;;;;;;30.36;100.00;98641.53;4859491;29;19954;-74
2022/06/17 13:55:08;;;;;;;;;;;;;;;30.35;100.00;98634.16;4858283;29;20389;-71
2022/06/17 13:57:44;;;;;;;;;;;;;;;30.33;100.00;98634.69;4860895;29;20274;-71
2022/06/17 14:00:22;;;;;;;;;;;;;;;30.16;100.00;98633.88;4862213;29;19950;-74
2022/06/17 14:02:55;;;;;;;;;;;;;;;30.28;100.00;98629.69;4858850;29;19952;-72
2022/06/17 14:05:35;;;;;;;;;;;;;;;30.26;100.00;98635.19;4859799;29;19979;-81
2022/06/17 14:08:05;;;;;;;;;;;;;;;30.32;100.00;98620.78;4860123;29;19951;-86
2022/06/17 14:11:31;;;;;;;;;;;;;;;30.22;100.00;98631.81;4864134;29;19976;-74
2022/06/17 14:14:10;;;;;;;;;;;;;;;30.17;100.00;98623.94;4837144;29;19949;-77
2022/06/17 14:16:37;;;;;;;;;;;;;;;30.16;100.00;98625.22;4861368;29;20313;-78
2022/06/17 14:19:07;;;;;;;;;;;;;;;30.10;100.00;98615.78;4862374;29;19949;-76
2022/06/17 14:21:52;;;;;;;;;;;;;;;30.09;100.00;98619.19;4861901;29;19946;-77
2022/06/17 14:24:43;;;;;;;;;;;;;;;30.12;100.00;98613.19;4860636;29;19959;-78
2022/06/17 14:27:19;;;;;;;;;;;;;;;30.15;100.00;98620.00;4844687;29;19956;-80
2022/06/17 14:30:07;;;;;;;;;;;;;;;30.20;100.00;98611.31;4860722;29;19964;-77
2022/06/17 14:32:49;;;;;;;;;;;;;;;30.34;100.00;98607.44;4858843;29;19948;-77
2022/06/17 14:35:28;;;;;;;;;;;;;;;30.21;100.00;98610.03;4863081;29;19959;-79
2022/06/17 14:38:14;;;;;;;;;;;;;;;30.20;100.00;98602.66;4862221;29;19960;-70
2022/06/17 14:43:40;;;;;;;;;;;;;;;30.08;100.00;98595.31;4858755;29;19950;-70
2022/06/17 14:46:07;;;;;;;;;;;;;;;29.98;100.00;98593.22;4864204;29;19961;-71
2022/06/17 14:48:37;;;;;;;;;;;;;;;29.98;100.00;98599.00;4865012;29;19949;-77
2022/06/17 14:51:33;;;;;;;;;;;;;;;29.97;100.00;98600.31;4848940;29;19970;-69
2022/06/17 14:54:02;;;;;;;;;;;;;;;29.95;100.00;98589.28;4859844;29;19958;-73
2022/06/17 14:56:36;;;;;;;;;;;;;;;30.05;100.00;98598.47;4866880;29;19951;-73
2022/06/17 14:59:12;;;;;;;;;;;;;;;30.09;100.00;98590.34;4859696;29;20243;-74
2022/06/17 15:01:44;;;;;;;;;;;;;;;30.08;100.00;98588.78;4858051;29;20338;-73
2022/06/17 15:04:22;;;;;;;;;;;;;;;30.07;100.00;98592.97;4865169;29;20365;-73
2022/06/17 15:06:51;;;;;;;;;;;;;;;30.02;100.00;98588.78;4860686;29;19948;-73
2022/06/17 15:09:30;;;;;;;;;;;;;;;30.04;100.00;98589.03;4866733;29;19966;-73
2022/06/17 15:11:57;;;;;;;;;;;;;;;30.04;100.00;98591.91;4866795;29;20246;-73
2022/06/17 15:14:25;;;;;;;;;;;;;;;30.02;100.00;98585.09;4862667;29;19947;-73
2022/06/17 15:16:54;;;;;;;;;;;;;;;30.00;100.00;98588.50;4858488;29;19953;-74
2022/06/17 15:19:25;;;;;;;;;;;;;;;29.98;100.00;98582.47;4862953;29;19952;-73
2022/06/17 15:21:58;;;;;;;;;;;;;;;30.01;100.00;98577.75;4866621;29;19978;-73
2022/06/17 15:24:28;;;;;;;;;;;;;;;30.10;100.00;98569.66;4866385;29;20334;-73
2022/06/17 15:27:05;;;;;;;;;;;;;;;30.05;100.00;98581.19;4862020;29;19987;-72
2022/06/17 15:29:34;;;;;;;;;;;;;;;30.03;100.00;98570.16;4860684;29;19965;-75
2022/06/17 15:32:14;;;;;;;;;;;;;;;30.03;100.00;98570.16;4863603;29;19955;-76
2022/06/17 15:34:47;;;;;;;;;;;;;;;30.03;100.00;98570.16;4866257;29;19958;-75
2022/06/17 15:37:25;;;;;;;;;;;;;;;30.01;100.00;98563.31;4866453;29;19956;-74
2022/06/17 15:40:05;;;;;;;;;;;;;;;29.99;100.00;98555.22;4865744;29;19975;-74
2022/06/17 15:42:32;;;;;;;;;;;;;;;29.98;100.00;98555.75;4866198;29;20247;-72
2022/06/17 15:45:01;;;;;;;;;;;;;;;29.93;100.00;98555.19;4866410;29;19956;-72
2022/06/17 15:47:30;;;;;;;;;;;;;;;29.89;100.00;98563.34;4864574;29;20374;-71
2022/06/17 15:49:58;;;;;;;;;;;;;;;29.85;100.00;98551.28;4864867;29;19969;-72
2022/06/17 15:52:32;;;;;;;;;;;;;;;29.81;100.00;98558.59;4866511;29;19944;-71
2022/06/17 15:55:14;;;;;;;;;;;;;;;29.74;100.00;98559.88;4859349;29;19947;-71
2022/06/17 15:57:53;;;;;;;;;;;;;;;29.86;100.00;98555.72;4867025;29;19955;-72
2022/06/17 16:00:22;;;;;;;;;;;;;;;29.80;100.00;98560.72;4861461;29;19957;-71
2022/06/17 16:02:54;;;;;;;;;;;;;;;29.76;100.00;98563.00;4859022;29;19962;-71
2022/06/17 16:05:27;;;;;;;;;;;;;;;29.87;100.00;98559.41;4863470;29;20252;-70
2022/06/17 16:07:56;;;;;;;;;;;;;;;29.85;100.00;98556.25;4865120;29;19959;-71
2022/06/17 16:10:26;;;;;;;;;;;;;;;29.79;100.00;98562.00;4863649;29;19967;-71
2022/06/17 16:13:12;;;;;;;;;;;;;;;29.78;100.00;98562.53;4863755;29;19945;-71
2022/06/17 16:15:44;;;;;;;;;;;;;;;29.77;100.00;98560.97;4863685;29;19949;-71
2022/06/17 16:18:20;;;;;;;;;;;;;;;29.73;100.00;98554.63;4863205;29;20335;-70
2022/06/17 16:20:47;;;;;;;;;;;;;;;29.70;100.00;98552.78;4861356;29;19956;-70
2022/06/17 16:23:29;;;;;;;;;;;;;;;29.66;100.00;98553.03;4866161;29;20233;-70
2022/06/17 16:25:58;;;;;;;;;;;;;;;29.63;100.00;98562.75;4866122;29;20243;-70
2022/06/17 16:28:31;;;;;;;;;;;;;;;29.61;100.00;98568.25;4866048;29;19959;-70
2022/06/17 16:30:59;;;;;;;;;;;;;;;29.55;100.00;98566.66;4857416;29;19967;-70
2022/06/17 16:33:28;;;;;;;;;;;;;;;29.57;100.00;98559.06;4857392;29;19955;-70
2022/06/17 16:36:00;;;;;;;;;;;;;;;29.51;100.00;98566.13;4860273;29;19953;-70
2022/06/17 16:38:34;;;;;;;;;;;;;;;29.42;100.00;98561.38;4859598;29;19947;-70
2022/06/17 16:44:08;;;;;;;;;;;;;;;29.40;100.00;98566.06;4864275;29;20274;-71
2022/06/17 16:46:47;;;;;;;;;;;;;;;29.32;100.00;98557.16;4864062;29;19954;-71
2022/06/17 16:49:14;;;;;;;;;;;;;;;29.25;100.00;98567.09;4862405;29;20220;-71
2022/06/17 16:51:41;;;;;;;;;;;;;;;29.19;100.00;98566.28;4859851;29;19967;-71
2022/06/17 16:54:11;;;;;;;;;;;;;;;29.17;100.00;98571.72;4864728;29;19956;-70
2022/06/17 16:56:42;;;;;;;;;;;;;;;29.15;100.00;98562.81;4863796;29;20366;-71
2022/06/17 16:59:10;;;;;;;;;;;;;;;29.12;100.00;98566.75;4864730;29;19952;-71
2022/06/17 17:01:37;;;;;;;;;;;;;;;29.09;100.00;98562.03;4865486;29;20364;-70
2022/06/17 17:04:04;;;;;;;;;;;;;;;29.02;100.00;98573.25;4863375;29;19964;-70
2022/06/17 17:06:32;;;;;;;;;;;;;;;28.95;100.00;98568.00;4859081;29;20364;-70
2022/06/17 17:08:59;;;;;;;;;;;;;;;28.87;100.00;98567.69;4855440;29;19956;-71
2022/06/17 17:11:26;;;;;;;;;;;;;;;28.83;100.00;98569.25;4852414;29;19963;-71
2022/06/17 17:13:56;;;;;;;;;;;;;;;28.76;100.00;98564.72;4859720;29;19950;-72
2022/06/17 17:16:24;;;;;;;;;;;;;;;28.75;100.00;98571.81;4857394;29;19947;-71
2022/06/17 17:18:52;;;;;;;;;;;;;;;28.68;100.00;98569.41;4864929;29;19967;-71
2022/06/17 17:21:22;;;;;;;;;;;;;;;28.59;100.00;98564.63;4864920;29;20368;-71
2022/06/17 17:23:50;;;;;;;;;;;;;;;28.48;100.00;98566.63;4865039;29;19954;-71
2022/06/17 17:26:17;;;;;;;;;;;;;;;28.50;100.00;98567.69;4865958;29;19945;-71
2022/06/17 17:28:45;;;;;;;;;;;;;;;28.43;100.00;98567.38;4865069;29;19949;-71
2022/06/17 17:31:12;;;;;;;;;;;;;;;28.39;100.00;98561.09;4864800;29;19964;-71
2022/06/17 17:33:40;;;;;;;;;;;;;;;28.38;100.00;98568.13;4865217;29;19956;-71
2022/06/17 17:36:09;;;;;;;;;;;;;;;28.37;100.00;98575.19;4864494;29;19950;-71
2022/06/17 17:38:36;;;;;;;;;;;;;;;28.37;100.00;98564.47;4864714;29;19974;-71
2022/06/17 17:44:00;;;;;;;;;;;;;;;28.43;100.00;98565.31;4861618;29;19948;-73
2022/06/17 17:46:29;;;;;;;;;;;;;;;28.48;100.00;98573.19;4862253;29;19946;-72
2022/06/17 17:48:57;;;;;;;;;;;;;;;28.54;100.00;98573.19;4865093;29;19963;-71
2022/06/17 17:51:25;;;;;;;;;;;;;;;28.48;100.00;98572.41;4863802;29;19968;-71
2022/06/17 17:53:52;;;;;;;;;;;;;;;28.60;100.00;98576.94;4862235;29;19955;-70
2022/06/17 17:56:53;;;;;;;;;;;;;;;28.49;100.00;98585.47;4864441;29;20343;-71
2022/06/17 17:59:22;;;;;;;;;;;;;;;28.44;100.00;98575.50;4864316;29;19947;-71
2022/06/17 18:01:50;;;;;;;;;;;;;;;28.43;100.00;98576.81;4847653;29;19947;-71
2022/06/17 18:04:21;;;;;;;;;;;;;;;28.34;100.00;98576.22;4864291;29;19949;-71
2022/06/17 18:06:49;;;;;;;;;;;;;;;28.29;100.00;98574.09;4860843;29;19956;-71
2022/06/17 18:09:17;;;;;;;;;;;;;;;28.25;100.00;98580.06;4858716;29;19978;-71
2022/06/17 18:11:46;;;;;;;;;;;;;;;28.23;100.00;98579.00;4864209;29;19970;-71
2022/06/17 18:14:18;;;;;;;;;;;;;;;28.24;100.00;98578.50;4862639;29;19949;-70
2022/06/17 18:16:45;;;;;;;;;;;;;;;28.28;100.00;98573.28;4859057;29;19945;-70
2022/06/17 18:19:13;;;;;;;;;;;;;;;28.42;100.00;98580.97;4860067;29;19951;-70
2022/06/17 18:21:41;;;;;;;;;;;;;;;28.23;100.00;98579.78;4857309;29;19954;-71
2022/06/17 18:24:13;;;;;;;;;;;;;;;28.24;100.00;98584.25;4860957;29;20379;-71
2022/06/17 18:26:46;;;;;;;;;;;;;;;28.21;100.00;98584.47;4864238;29;19947;-71
2022/06/17 18:29:16;;;;;;;;;;;;;;;28.17;100.00;98581.81;4864186;29;19948;-70
2022/06/17 18:31:44;;;;;;;;;;;;;;;28.18;100.00;98582.63;4863264;29;19978;-70
2022/06/17 18:34:13;;;;;;;;;;;;;;;28.15;100.00;98587.31;4863552;29;19954;-70
2022/06/17 18:36:41;;;;;;;;;;;;;;;28.02;100.00;98592.69;4861367;29;19947;-70
2022/06/17 18:39:14;;;;;;;;;;;;;;;27.98;100.00;98589.22;4863779;29;20327;-70
2022/06/17 18:44:27;;;;;;;;;;;;;;;28.07;100.00;98591.16;4863464;29;19956;-70
2022/06/17 18:46:55;;;;;;;;;;;;;;;27.93;100.00;98598.56;4863955;29;20364;-70
2022/06/17 18:49:23;;;;;;;;;;;;;;;27.85;100.00;98603.22;4862533;29;19956;-70
2022/06/17 18:51:50;;;;;;;;;;;;;;;27.87;100.00;98607.16;4863768;29;20259;-70
2022/06/17 18:54:19;;;;;;;;;;;;;;;27.81;100.00;98602.63;4852312;29;19954;-70
2022/06/17 18:56:47;;;;;;;;;;;;;;;27.71;100.00;98604.09;4865953;29;19948;-70
2022/06/17 18:59:14;;;;;;;;;;;;;;;27.66;100.00;98605.63;4863357;29;19950;-70
2022/06/17 19:01:44;;;;;;;;;;;;;;;27.66;100.00;98607.69;4866844;29;19953;-70
2022/06/17 19:04:17;;;;;;;;;;;;;;;27.65;100.00;98609.00;4861867;29;19959;-70
2022/06/17 19:06:47;;;;;;;;;;;;;;;27.60;100.00;98613.41;4864264;29;20205;-70
2022/06/17 19:17:36;;;;;;;;;;;;;;;27.46;100.00;98617.19;4865751;29;19954;-70
2022/06/17 19:20:06;;;;;;;;;;;;;;;27.45;100.00;98624.19;4859904;29;19954;-70
2022/06/17 19:22:37;;;;;;;;;;;;;;;27.56;100.00;98621.44;4865050;29;20353;-70
2022/06/17 19:25:08;;;;;;;;;;;;;;;27.46;100.00;98627.88;4865406;29;19948;-70
2022/06/17 19:27:37;;;;;;;;;;;;;;;27.45;100.00;98632.03;4866189;29;19948;-70
2022/06/17 19:30:05;;;;;;;;;;;;;;;27.40;100.00;98635.63;4865034;29;19953;-70
2022/06/17 19:32:35;;;;;;;;;;;;;;;27.41;100.00;98635.13;4853644;29;19968;-70
2022/06/17 19:35:03;;;;;;;;;;;;;;;27.41;100.00;98645.81;4866050;29;19955;-70
2022/06/17 19:37:30;;;;;;;;;;;;;;;27.37;100.00;98646.78;4861952;29;19951;-70
2022/06/17 19:39:58;;;;;;;;;;;;;;;27.34;100.00;98638.38;4865700;29;19945;-70
2022/06/17 19:42:25;;;;;;;;;;;;;;;27.34;100.00;98644.13;4862966;29;19953;-70
2022/06/17 19:44:53;;;;;;;;;;;;;;;27.32;100.00;98653.25;4863869;29;19959;-70
2022/06/17 19:47:21;;;;;;;;;;;;;;;27.33;100.00;98654.84;4864471;29;20320;-70
2022/06/17 19:49:55;;;;;;;;;;;;;;;27.34;100.00;98669.97;4862000;29;20250;-70
2022/06/17 19:52:25;;;;;;;;;;;;;;;27.37;100.00;98666.91;4861416;29;19969;-70
2022/06/17 19:54:53;;;;;;;;;;;;;;;27.26;100.00;98665.97;4865761;29;20260;-70
2022/06/17 19:57:21;;;;;;;;;;;;;;;27.23;100.00;98672.72;4865372;29;19951;-70
2022/06/17 19:59:49;;;;;;;;;;;;;;;27.23;100.00;98672.72;4866083;29;19945;-70
2022/06/17 20:02:27;;;;;;;;;;;;;;;27.20;100.00;98683.13;4866116;29;20542;-70
2022/06/17 20:04:56;;;;;;;;;;;;;;;27.22;100.00;98679.72;4866271;29;19952;-70
2022/06/17 20:07:25;;;;;;;;;;;;;;;27.23;100.00;98687.88;4866275;29;19947;-70
2022/06/17 20:09:53;;;;;;;;;;;;;;;27.22;100.00;98680.53;4866200;29;20426;-70
2022/06/17 20:12:23;;;;;;;;;;;;;;;27.28;100.00;98683.47;4866299;29;19998;-70
2022/06/17 20:14:54;;;;;;;;;;;;;;;27.26;100.00;98688.94;4866098;29;19947;-70
2022/06/17 20:17:21;;;;;;;;;;;;;;;27.24;100.00;98695.16;4865715;29;19950;-70
2022/06/17 20:19:48;;;;;;;;;;;;;;;27.21;100.00;98696.19;4866050;29;20312;-71
2022/06/17 20:22:16;;;;;;;;;;;;;;;27.18;100.00;98702.13;4866544;29;19958;-70
2022/06/17 20:24:45;;;;;;;;;;;;;;;27.19;100.00;98700.84;4864967;29;19945;-72
2022/06/17 20:27:17;;;;;;;;;;;;;;;27.09;100.00;98711.69;4864956;29;19955;-73
2022/06/17 20:29:45;;;;;;;;;;;;;;;27.11;100.00;98709.09;4865384;29;19954;-73
2022/06/17 20:32:16;;;;;;;;;;;;;;;27.04;100.00;98711.59;4865984;29;20233;-73
2022/06/17 20:34:44;;;;;;;;;;;;;;;27.01;100.00;98712.59;4865065;29;19955;-73
